sensor_id;sensor_type;location;lat;lon;timestamp;P1;durP1;ratioP1;P2;durP2;ratioP2
56469;SDS011;42374;51.464;-2.590;2022-10-16T00:00:35;12.65;;;2.30;;
56469;SDS011;42374;51.464;-2.590;2022-10-16T00:03:02;21.23;;;3.50;;
56469;SDS011;42374;51.464;-2.590;2022-10-16T00:05:28;19.90;;;4.53;;
56469;SDS011;42374;51.464;-2.590;2022-10-16T00:07:54;16.05;;;2.88;;
56469;SDS011;42374;51.464;-2.590;2022-10-16T00:10:20;25.98;;;4.90;;
56469;SDS011;42374;51.464;-2.590;2022-10-16T00:12:46;12.70;;;2.85;;
56469;SDS011;42374;51.464;-2.590;2022-10-16T00:15:12;21.45;;;2.80;;
56469;SDS011;42374;51.464;-2.590;2022-10-16T00:17:38;17.50;;;2.78;;
56469;SDS011;42374;51.464;-2.590;2022-10-16T00:20:04;24.63;;;5.90;;
56469;SDS011;42374;51.464;-2.590;2022-10-16T00:22:30;20.15;;;3.47;;
56469;SDS011;42374;51.464;-2.590;2022-10-16T00:27:41;13.18;;;3.00;;
56469;SDS011;42374;51.464;-2.590;2022-10-16T00:30:07;19.23;;;3.80;;
56469;SDS011;42374;51.464;-2.590;2022-10-16T00:32:34;18.30;;;2.38;;
56469;SDS011;42374;51.464;-2.590;2022-10-16T00:35:00;19.75;;;3.05;;
56469;SDS011;42374;51.464;-2.590;2022-10-16T00:37:26;16.60;;;5.10;;
56469;SDS011;42374;51.464;-2.590;2022-10-16T00:39:52;19.55;;;3.38;;
56469;SDS011;42374;51.464;-2.590;2022-10-16T00:42:18;25.45;;;4.68;;
56469;SDS011;42374;51.464;-2.590;2022-10-16T00:44:46;13.77;;;2.65;;
56469;SDS011;42374;51.464;-2.590;2022-10-16T00:47:21;11.20;;;1.70;;
56469;SDS011;42374;51.464;-2.590;2022-10-16T00:49:48;13.82;;;1.90;;
56469;SDS011;42374;51.464;-2.590;2022-10-16T00:52:15;19.73;;;3.80;;
56469;SDS011;42374;51.464;-2.590;2022-10-16T00:54:42;10.45;;;2.10;;
56469;SDS011;42374;51.464;-2.590;2022-10-16T00:57:08;17.55;;;3.05;;
56469;SDS011;42374;51.464;-2.590;2022-10-16T00:59:38;29.17;;;8.95;;
56469;SDS011;42374;51.464;-2.590;2022-10-16T01:02:06;22.80;;;7.13;;
56469;SDS011;42374;51.464;-2.590;2022-10-16T01:04:36;16.73;;;3.53;;
56469;SDS011;42374;51.464;-2.590;2022-10-16T01:15:08;20.48;;;3.15;;
56469;SDS011;42374;51.464;-2.590;2022-10-16T01:20:16;16.90;;;4.90;;
56469;SDS011;42374;51.464;-2.590;2022-10-16T01:25:19;16.63;;;3.00;;
56469;SDS011;42374;51.464;-2.590;2022-10-16T01:27:48;12.48;;;2.13;;
56469;SDS011;42374;51.464;-2.590;2022-10-16T01:30:21;15.05;;;1.55;;
56469;SDS011;42374;51.464;-2.590;2022-10-16T01:32:53;11.48;;;2.63;;
56469;SDS011;42374;51.464;-2.590;2022-10-16T01:35:27;14.55;;;3.20;;
56469;SDS011;42374;51.464;-2.590;2022-10-16T01:37:58;14.77;;;2.95;;
56469;SDS011;42374;51.464;-2.590;2022-10-16T01:40:26;18.05;;;2.40;;
56469;SDS011;42374;51.464;-2.590;2022-10-16T01:42:53;13.63;;;2.42;;
56469;SDS011;42374;51.464;-2.590;2022-10-16T01:45:21;14.68;;;2.30;;
56469;SDS011;42374;51.464;-2.590;2022-10-16T01:47:48;15.70;;;1.83;;
56469;SDS011;42374;51.464;-2.590;2022-10-16T01:50:15;10.75;;;1.70;;
56469;SDS011;42374;51.464;-2.590;2022-10-16T01:52:43;9.20;;;1.95;;
56469;SDS011;42374;51.464;-2.590;2022-10-16T01:55:10;10.50;;;1.25;;
56469;SDS011;42374;51.464;-2.590;2022-10-16T01:57:38;11.80;;;1.80;;
56469;SDS011;42374;51.464;-2.590;2022-10-16T02:00:07;10.80;;;1.80;;
56469;SDS011;42374;51.464;-2.590;2022-10-16T02:02:34;15.73;;;2.85;;
56469;SDS011;42374;51.464;-2.590;2022-10-16T02:07:42;11.90;;;2.13;;
56469;SDS011;42374;51.464;-2.590;2022-10-16T02:10:08;14.30;;;2.28;;
56469;SDS011;42374;51.464;-2.590;2022-10-16T02:12:35;8.18;;;1.20;;
56469;SDS011;42374;51.464;-2.590;2022-10-16T02:15:05;8.88;;;1.92;;
56469;SDS011;42374;51.464;-2.590;2022-10-16T02:17:31;8.32;;;1.45;;
56469;SDS011;42374;51.464;-2.590;2022-10-16T02:19:57;10.48;;;1.42;;
56469;SDS011;42374;51.464;-2.590;2022-10-16T02:22:26;11.85;;;3.05;;
56469;SDS011;42374;51.464;-2.590;2022-10-16T02:27:33;7.38;;;1.90;;
56469;SDS011;42374;51.464;-2.590;2022-10-16T02:30:08;9.60;;;1.35;;
56469;SDS011;42374;51.464;-2.590;2022-10-16T02:32:39;10.02;;;1.80;;
56469;SDS011;42374;51.464;-2.590;2022-10-16T02:35:05;14.45;;;2.15;;
56469;SDS011;42374;51.464;-2.590;2022-10-16T02:37:32;11.25;;;1.40;;
56469;SDS011;42374;51.464;-2.590;2022-10-16T02:39:58;15.52;;;1.67;;
56469;SDS011;42374;51.464;-2.590;2022-10-16T02:42:28;6.35;;;1.15;;
56469;SDS011;42374;51.464;-2.590;2022-10-16T02:44:55;14.35;;;1.70;;
56469;SDS011;42374;51.464;-2.590;2022-10-16T02:47:21;13.13;;;1.60;;
56469;SDS011;42374;51.464;-2.590;2022-10-16T02:49:47;8.18;;;1.73;;
56469;SDS011;42374;51.464;-2.590;2022-10-16T02:52:13;11.20;;;1.85;;
56469;SDS011;42374;51.464;-2.590;2022-10-16T02:54:39;12.57;;;2.53;;
56469;SDS011;42374;51.464;-2.590;2022-10-16T02:57:05;15.52;;;3.80;;
56469;SDS011;42374;51.464;-2.590;2022-10-16T02:59:31;16.75;;;3.78;;
56469;SDS011;42374;51.464;-2.590;2022-10-16T03:01:57;16.08;;;5.35;;
56469;SDS011;42374;51.464;-2.590;2022-10-16T03:04:23;9.60;;;3.30;;
56469;SDS011;42374;51.464;-2.590;2022-10-16T03:06:49;16.35;;;2.97;;
56469;SDS011;42374;51.464;-2.590;2022-10-16T03:09:15;14.68;;;2.65;;
56469;SDS011;42374;51.464;-2.590;2022-10-16T03:11:41;10.57;;;1.77;;
56469;SDS011;42374;51.464;-2.590;2022-10-16T03:14:07;11.40;;;1.50;;
56469;SDS011;42374;51.464;-2.590;2022-10-16T03:16:33;15.48;;;1.50;;
56469;SDS011;42374;51.464;-2.590;2022-10-16T03:18:59;10.90;;;1.60;;
56469;SDS011;42374;51.464;-2.590;2022-10-16T03:21:25;10.07;;;1.45;;
56469;SDS011;42374;51.464;-2.590;2022-10-16T03:23:51;12.68;;;1.33;;
56469;SDS011;42374;51.464;-2.590;2022-10-16T03:26:17;13.40;;;1.40;;
56469;SDS011;42374;51.464;-2.590;2022-10-16T03:28:43;7.38;;;1.38;;
56469;SDS011;42374;51.464;-2.590;2022-10-16T03:31:09;8.60;;;1.50;;
56469;SDS011;42374;51.464;-2.590;2022-10-16T03:33:35;17.90;;;1.70;;
56469;SDS011;42374;51.464;-2.590;2022-10-16T03:36:01;6.38;;;1.52;;
56469;SDS011;42374;51.464;-2.590;2022-10-16T03:38:27;6.85;;;1.58;;
56469;SDS011;42374;51.464;-2.590;2022-10-16T03:40:53;16.95;;;1.85;;
56469;SDS011;42374;51.464;-2.590;2022-10-16T03:43:19;16.08;;;5.13;;
56469;SDS011;42374;51.464;-2.590;2022-10-16T03:45:45;14.20;;;4.40;;
56469;SDS011;42374;51.464;-2.590;2022-10-16T03:48:11;10.52;;;2.60;;
56469;SDS011;42374;51.464;-2.590;2022-10-16T03:50:37;9.50;;;1.52;;
56469;SDS011;42374;51.464;-2.590;2022-10-16T03:53:03;23.13;;;3.97;;
56469;SDS011;42374;51.464;-2.590;2022-10-16T03:55:30;12.80;;;1.90;;
56469;SDS011;42374;51.464;-2.590;2022-10-16T03:57:56;18.77;;;2.88;;
56469;SDS011;42374;51.464;-2.590;2022-10-16T04:00:22;15.73;;;2.47;;
56469;SDS011;42374;51.464;-2.590;2022-10-16T04:02:48;14.77;;;2.70;;
56469;SDS011;42374;51.464;-2.590;2022-10-16T04:05:15;11.60;;;1.67;;
56469;SDS011;42374;51.464;-2.590;2022-10-16T04:07:41;10.40;;;1.40;;
56469;SDS011;42374;51.464;-2.590;2022-10-16T04:10:07;14.27;;;1.60;;
56469;SDS011;42374;51.464;-2.590;2022-10-16T04:12:33;13.02;;;1.92;;
56469;SDS011;42374;51.464;-2.590;2022-10-16T04:15:00;19.35;;;3.25;;
56469;SDS011;42374;51.464;-2.590;2022-10-16T04:17:26;11.55;;;1.95;;
56469;SDS011;42374;51.464;-2.590;2022-10-16T04:19:52;17.42;;;3.60;;
56469;SDS011;42374;51.464;-2.590;2022-10-16T04:22:18;22.63;;;4.07;;
56469;SDS011;42374;51.464;-2.590;2022-10-16T04:24:44;14.23;;;2.35;;
56469;SDS011;42374;51.464;-2.590;2022-10-16T04:27:10;17.58;;;3.10;;
56469;SDS011;42374;51.464;-2.590;2022-10-16T04:29:36;14.13;;;1.85;;
56469;SDS011;42374;51.464;-2.590;2022-10-16T04:32:02;13.80;;;2.20;;
56469;SDS011;42374;51.464;-2.590;2022-10-16T04:34:28;7.57;;;1.42;;
56469;SDS011;42374;51.464;-2.590;2022-10-16T04:36:54;8.48;;;1.38;;
56469;SDS011;42374;51.464;-2.590;2022-10-16T04:39:20;10.85;;;2.00;;
56469;SDS011;42374;51.464;-2.590;2022-10-16T04:41:46;12.73;;;2.50;;
56469;SDS011;42374;51.464;-2.590;2022-10-16T04:44:12;16.42;;;3.05;;
56469;SDS011;42374;51.464;-2.590;2022-10-16T04:46:38;13.52;;;1.85;;
56469;SDS011;42374;51.464;-2.590;2022-10-16T04:49:07;15.32;;;1.45;;
56469;SDS011;42374;51.464;-2.590;2022-10-16T04:51:33;12.75;;;1.15;;
56469;SDS011;42374;51.464;-2.590;2022-10-16T04:53:59;10.23;;;1.65;;
56469;SDS011;42374;51.464;-2.590;2022-10-16T04:56:25;9.00;;;1.20;;
56469;SDS011;42374;51.464;-2.590;2022-10-16T04:58:51;10.93;;;1.52;;
56469;SDS011;42374;51.464;-2.590;2022-10-16T05:01:17;15.73;;;1.73;;
56469;SDS011;42374;51.464;-2.590;2022-10-16T05:03:43;9.00;;;0.98;;
56469;SDS011;42374;51.464;-2.590;2022-10-16T05:06:09;5.75;;;1.40;;
56469;SDS011;42374;51.464;-2.590;2022-10-16T05:08:35;17.13;;;1.25;;
56469;SDS011;42374;51.464;-2.590;2022-10-16T05:11:01;9.40;;;1.13;;
56469;SDS011;42374;51.464;-2.590;2022-10-16T05:13:27;7.28;;;1.17;;
56469;SDS011;42374;51.464;-2.590;2022-10-16T05:15:53;5.85;;;0.95;;
56469;SDS011;42374;51.464;-2.590;2022-10-16T05:18:19;11.55;;;1.10;;
56469;SDS011;42374;51.464;-2.590;2022-10-16T05:20:45;12.43;;;1.27;;
56469;SDS011;42374;51.464;-2.590;2022-10-16T05:23:11;10.07;;;1.08;;
56469;SDS011;42374;51.464;-2.590;2022-10-16T05:25:37;11.35;;;1.95;;
56469;SDS011;42374;51.464;-2.590;2022-10-16T05:28:03;8.70;;;1.30;;
56469;SDS011;42374;51.464;-2.590;2022-10-16T05:30:29;7.03;;;1.00;;
56469;SDS011;42374;51.464;-2.590;2022-10-16T05:32:55;12.52;;;1.23;;
56469;SDS011;42374;51.464;-2.590;2022-10-16T05:35:21;9.38;;;0.80;;
56469;SDS011;42374;51.464;-2.590;2022-10-16T05:37:47;12.43;;;0.82;;
56469;SDS011;42374;51.464;-2.590;2022-10-16T05:40:14;7.60;;;1.27;;
56469;SDS011;42374;51.464;-2.590;2022-10-16T05:42:41;14.88;;;0.90;;
56469;SDS011;42374;51.464;-2.590;2022-10-16T05:45:08;12.27;;;1.40;;
56469;SDS011;42374;51.464;-2.590;2022-10-16T05:47:35;12.02;;;1.38;;
56469;SDS011;42374;51.464;-2.590;2022-10-16T05:50:01;10.00;;;1.05;;
56469;SDS011;42374;51.464;-2.590;2022-10-16T05:52:29;9.65;;;0.80;;
56469;SDS011;42374;51.464;-2.590;2022-10-16T05:54:55;7.65;;;1.27;;
56469;SDS011;42374;51.464;-2.590;2022-10-16T05:57:21;10.45;;;0.85;;
56469;SDS011;42374;51.464;-2.590;2022-10-16T05:59:47;7.05;;;0.88;;
56469;SDS011;42374;51.464;-2.590;2022-10-16T06:02:13;14.70;;;1.40;;
56469;SDS011;42374;51.464;-2.590;2022-10-16T06:04:39;5.07;;;1.00;;
56469;SDS011;42374;51.464;-2.590;2022-10-16T06:07:05;14.50;;;1.55;;
56469;SDS011;42374;51.464;-2.590;2022-10-16T06:09:31;10.00;;;0.93;;
56469;SDS011;42374;51.464;-2.590;2022-10-16T06:11:57;13.00;;;1.90;;
56469;SDS011;42374;51.464;-2.590;2022-10-16T06:14:23;8.45;;;0.98;;
56469;SDS011;42374;51.464;-2.590;2022-10-16T06:16:49;7.43;;;0.93;;
56469;SDS011;42374;51.464;-2.590;2022-10-16T06:19:15;11.20;;;1.00;;
56469;SDS011;42374;51.464;-2.590;2022-10-16T06:21:42;10.13;;;1.13;;
56469;SDS011;42374;51.464;-2.590;2022-10-16T06:24:09;7.93;;;1.17;;
56469;SDS011;42374;51.464;-2.590;2022-10-16T06:26:35;10.50;;;1.23;;
56469;SDS011;42374;51.464;-2.590;2022-10-16T06:29:01;6.97;;;0.80;;
56469;SDS011;42374;51.464;-2.590;2022-10-16T06:31:29;7.43;;;0.82;;
56469;SDS011;42374;51.464;-2.590;2022-10-16T06:33:58;8.85;;;1.23;;
56469;SDS011;42374;51.464;-2.590;2022-10-16T06:36:24;19.80;;;1.40;;
56469;SDS011;42374;51.464;-2.590;2022-10-16T06:38:50;16.33;;;1.30;;
56469;SDS011;42374;51.464;-2.590;2022-10-16T06:41:20;11.27;;;1.20;;
56469;SDS011;42374;51.464;-2.590;2022-10-16T06:43:46;5.97;;;0.88;;
56469;SDS011;42374;51.464;-2.590;2022-10-16T06:46:13;7.22;;;0.98;;
56469;SDS011;42374;51.464;-2.590;2022-10-16T06:48:40;8.18;;;0.90;;
56469;SDS011;42374;51.464;-2.590;2022-10-16T06:51:08;8.27;;;1.00;;
56469;SDS011;42374;51.464;-2.590;2022-10-16T06:53:35;8.90;;;0.95;;
56469;SDS011;42374;51.464;-2.590;2022-10-16T06:58:33;8.50;;;1.00;;
56469;SDS011;42374;51.464;-2.590;2022-10-16T07:00:59;12.18;;;2.13;;
56469;SDS011;42374;51.464;-2.590;2022-10-16T07:05:55;7.65;;;1.27;;
56469;SDS011;42374;51.464;-2.590;2022-10-16T07:08:22;10.55;;;1.10;;
56469;SDS011;42374;51.464;-2.590;2022-10-16T07:10:48;9.10;;;1.20;;
56469;SDS011;42374;51.464;-2.590;2022-10-16T07:13:14;12.82;;;1.65;;
56469;SDS011;42374;51.464;-2.590;2022-10-16T07:15:40;10.98;;;1.30;;
56469;SDS011;42374;51.464;-2.590;2022-10-16T07:18:06;12.38;;;1.15;;
56469;SDS011;42374;51.464;-2.590;2022-10-16T07:20:33;13.35;;;1.10;;
56469;SDS011;42374;51.464;-2.590;2022-10-16T07:22:59;12.10;;;1.17;;
56469;SDS011;42374;51.464;-2.590;2022-10-16T07:25:25;14.30;;;1.30;;
56469;SDS011;42374;51.464;-2.590;2022-10-16T07:27:51;11.70;;;1.17;;
56469;SDS011;42374;51.464;-2.590;2022-10-16T07:30:17;17.10;;;2.30;;
56469;SDS011;42374;51.464;-2.590;2022-10-16T07:32:43;9.13;;;1.00;;
56469;SDS011;42374;51.464;-2.590;2022-10-16T07:35:09;11.45;;;1.40;;
56469;SDS011;42374;51.464;-2.590;2022-10-16T07:37:35;11.15;;;1.10;;
56469;SDS011;42374;51.464;-2.590;2022-10-16T07:40:01;10.07;;;1.00;;
56469;SDS011;42374;51.464;-2.590;2022-10-16T07:42:27;12.95;;;1.05;;
56469;SDS011;42374;51.464;-2.590;2022-10-16T07:44:53;9.32;;;1.15;;
56469;SDS011;42374;51.464;-2.590;2022-10-16T07:47:19;10.50;;;2.20;;
56469;SDS011;42374;51.464;-2.590;2022-10-16T07:49:45;7.68;;;1.58;;
56469;SDS011;42374;51.464;-2.590;2022-10-16T07:52:11;15.75;;;2.38;;
56469;SDS011;42374;51.464;-2.590;2022-10-16T07:54:38;14.73;;;2.67;;
56469;SDS011;42374;51.464;-2.590;2022-10-16T07:57:04;13.07;;;1.80;;
56469;SDS011;42374;51.464;-2.590;2022-10-16T07:59:30;10.73;;;1.02;;
56469;SDS011;42374;51.464;-2.590;2022-10-16T08:01:56;9.25;;;1.25;;
56469;SDS011;42374;51.464;-2.590;2022-10-16T08:04:22;9.07;;;1.23;;
56469;SDS011;42374;51.464;-2.590;2022-10-16T08:06:48;12.27;;;1.55;;
56469;SDS011;42374;51.464;-2.590;2022-10-16T08:09:14;6.57;;;1.10;;
56469;SDS011;42374;51.464;-2.590;2022-10-16T08:11:40;10.05;;;1.10;;
56469;SDS011;42374;51.464;-2.590;2022-10-16T08:14:07;8.77;;;1.13;;
56469;SDS011;42374;51.464;-2.590;2022-10-16T08:16:33;13.38;;;1.40;;
56469;SDS011;42374;51.464;-2.590;2022-10-16T08:18:59;11.10;;;1.45;;
56469;SDS011;42374;51.464;-2.590;2022-10-16T08:21:26;14.43;;;1.27;;
56469;SDS011;42374;51.464;-2.590;2022-10-16T08:23:52;11.63;;;1.30;;
56469;SDS011;42374;51.464;-2.590;2022-10-16T08:26:19;9.43;;;1.40;;
56469;SDS011;42374;51.464;-2.590;2022-10-16T08:28:45;9.50;;;1.20;;
56469;SDS011;42374;51.464;-2.590;2022-10-16T08:31:12;9.15;;;1.27;;
56469;SDS011;42374;51.464;-2.590;2022-10-16T08:33:41;13.90;;;1.48;;
56469;SDS011;42374;51.464;-2.590;2022-10-16T08:36:08;15.88;;;1.40;;
56469;SDS011;42374;51.464;-2.590;2022-10-16T08:38:35;33.70;;;6.85;;
56469;SDS011;42374;51.464;-2.590;2022-10-16T08:46:40;12.85;;;1.20;;
56469;SDS011;42374;51.464;-2.590;2022-10-16T08:49:10;9.80;;;1.77;;
56469;SDS011;42374;51.464;-2.590;2022-10-16T08:51:38;12.68;;;1.40;;
56469;SDS011;42374;51.464;-2.590;2022-10-16T08:54:06;11.90;;;1.48;;
56469;SDS011;42374;51.464;-2.590;2022-10-16T08:56:33;11.95;;;1.63;;
56469;SDS011;42374;51.464;-2.590;2022-10-16T08:58:59;15.82;;;1.67;;
56469;SDS011;42374;51.464;-2.590;2022-10-16T09:01:37;11.30;;;1.55;;
56469;SDS011;42374;51.464;-2.590;2022-10-16T09:12:10;11.60;;;1.05;;
56469;SDS011;42374;51.464;-2.590;2022-10-16T09:20:07;10.27;;;1.25;;
56469;SDS011;42374;51.464;-2.590;2022-10-16T09:22:35;10.68;;;1.00;;
56469;SDS011;42374;51.464;-2.590;2022-10-16T09:25:10;8.38;;;1.27;;
56469;SDS011;42374;51.464;-2.590;2022-10-16T09:27:36;8.85;;;1.10;;
56469;SDS011;42374;51.464;-2.590;2022-10-16T09:30:12;7.60;;;1.08;;
56469;SDS011;42374;51.464;-2.590;2022-10-16T09:32:39;10.20;;;1.30;;
56469;SDS011;42374;51.464;-2.590;2022-10-16T09:35:09;14.52;;;1.42;;
56469;SDS011;42374;51.464;-2.590;2022-10-16T09:37:36;8.52;;;1.45;;
56469;SDS011;42374;51.464;-2.590;2022-10-16T09:40:02;11.90;;;1.55;;
56469;SDS011;42374;51.464;-2.590;2022-10-16T09:42:32;7.20;;;1.23;;
56469;SDS011;42374;51.464;-2.590;2022-10-16T09:45:01;13.30;;;1.60;;
56469;SDS011;42374;51.464;-2.590;2022-10-16T09:47:27;17.95;;;1.48;;
56469;SDS011;42374;51.464;-2.590;2022-10-16T09:49:54;13.05;;;1.27;;
56469;SDS011;42374;51.464;-2.590;2022-10-16T09:52:22;12.80;;;1.27;;
56469;SDS011;42374;51.464;-2.590;2022-10-16T09:54:53;9.98;;;1.38;;
56469;SDS011;42374;51.464;-2.590;2022-10-16T09:57:20;7.07;;;1.20;;
56469;SDS011;42374;51.464;-2.590;2022-10-16T09:59:47;13.98;;;1.40;;
56469;SDS011;42374;51.464;-2.590;2022-10-16T10:02:14;8.60;;;2.10;;
56469;SDS011;42374;51.464;-2.590;2022-10-16T10:04:46;8.02;;;1.65;;
56469;SDS011;42374;51.464;-2.590;2022-10-16T10:07:17;10.93;;;1.50;;
56469;SDS011;42374;51.464;-2.590;2022-10-16T10:09:44;8.85;;;1.10;;
56469;SDS011;42374;51.464;-2.590;2022-10-16T10:12:18;17.15;;;2.30;;
56469;SDS011;42374;51.464;-2.590;2022-10-16T10:14:46;8.63;;;1.30;;
56469;SDS011;42374;51.464;-2.590;2022-10-16T10:19:40;9.55;;;1.63;;
56469;SDS011;42374;51.464;-2.590;2022-10-16T10:22:13;8.93;;;1.17;;
56469;SDS011;42374;51.464;-2.590;2022-10-16T10:24:41;13.82;;;1.75;;
56469;SDS011;42374;51.464;-2.590;2022-10-16T10:27:12;9.43;;;1.20;;
56469;SDS011;42374;51.464;-2.590;2022-10-16T10:30:02;9.32;;;1.73;;
56469;SDS011;42374;51.464;-2.590;2022-10-16T10:32:34;9.77;;;0.95;;
56469;SDS011;42374;51.464;-2.590;2022-10-16T10:42:55;8.63;;;2.28;;
56469;SDS011;42374;51.464;-2.590;2022-10-16T10:51:06;7.18;;;0.93;;
56469;SDS011;42374;51.464;-2.590;2022-10-16T10:58:56;6.95;;;1.08;;
56469;SDS011;42374;51.464;-2.590;2022-10-16T11:07:17;5.28;;;0.80;;
56469;SDS011;42374;51.464;-2.590;2022-10-16T11:09:41;9.30;;;1.02;;
56469;SDS011;42374;51.464;-2.590;2022-10-16T11:14:46;5.20;;;1.10;;
56469;SDS011;42374;51.464;-2.590;2022-10-16T11:19:51;4.88;;;0.90;;
56469;SDS011;42374;51.464;-2.590;2022-10-16T11:27:55;5.63;;;1.02;;
56469;SDS011;42374;51.464;-2.590;2022-10-16T11:30:24;8.95;;;1.10;;
56469;SDS011;42374;51.464;-2.590;2022-10-16T11:35:36;8.10;;;1.27;;
56469;SDS011;42374;51.464;-2.590;2022-10-16T11:38:03;4.93;;;1.42;;
56469;SDS011;42374;51.464;-2.590;2022-10-16T11:40:37;4.70;;;0.80;;
56469;SDS011;42374;51.464;-2.590;2022-10-16T11:43:10;5.47;;;0.70;;
56469;SDS011;42374;51.464;-2.590;2022-10-16T11:45:41;5.15;;;0.93;;
56469;SDS011;42374;51.464;-2.590;2022-10-16T11:48:23;5.82;;;0.77;;
56469;SDS011;42374;51.464;-2.590;2022-10-16T11:50:56;6.60;;;0.80;;
56469;SDS011;42374;51.464;-2.590;2022-10-16T11:53:38;8.30;;;1.35;;
56469;SDS011;42374;51.464;-2.590;2022-10-16T11:56:07;11.47;;;0.90;;
56469;SDS011;42374;51.464;-2.590;2022-10-16T12:06:13;6.95;;;1.27;;
56469;SDS011;42374;51.464;-2.590;2022-10-16T12:08:43;6.93;;;1.02;;
56469;SDS011;42374;51.464;-2.590;2022-10-16T12:11:20;6.80;;;1.02;;
56469;SDS011;42374;51.464;-2.590;2022-10-16T12:13:48;9.75;;;2.05;;
56469;SDS011;42374;51.464;-2.590;2022-10-16T12:18:41;5.15;;;1.00;;
56469;SDS011;42374;51.464;-2.590;2022-10-16T12:21:07;6.35;;;0.80;;
56469;SDS011;42374;51.464;-2.590;2022-10-16T12:23:37;5.80;;;1.27;;
56469;SDS011;42374;51.464;-2.590;2022-10-16T12:26:04;6.70;;;1.20;;
56469;SDS011;42374;51.464;-2.590;2022-10-16T12:28:33;7.15;;;1.25;;
56469;SDS011;42374;51.464;-2.590;2022-10-16T12:31:02;7.60;;;0.93;;
56469;SDS011;42374;51.464;-2.590;2022-10-16T12:35:59;9.93;;;1.40;;
56469;SDS011;42374;51.464;-2.590;2022-10-16T12:41:04;14.38;;;1.35;;
56469;SDS011;42374;51.464;-2.590;2022-10-16T12:46:03;6.60;;;1.10;;
56469;SDS011;42374;51.464;-2.590;2022-10-16T12:48:29;9.32;;;1.38;;
56469;SDS011;42374;51.464;-2.590;2022-10-16T12:50:56;11.00;;;1.60;;
56469;SDS011;42374;51.464;-2.590;2022-10-16T12:53:24;7.32;;;1.20;;
56469;SDS011;42374;51.464;-2.590;2022-10-16T13:01:01;9.32;;;1.13;;
56469;SDS011;42374;51.464;-2.590;2022-10-16T13:08:35;8.07;;;1.52;;
56469;SDS011;42374;51.464;-2.590;2022-10-16T13:11:07;7.85;;;1.10;;
56469;SDS011;42374;51.464;-2.590;2022-10-16T13:29:13;12.32;;;1.67;;
56469;SDS011;42374;51.464;-2.590;2022-10-16T13:31:39;6.85;;;1.40;;
56469;SDS011;42374;51.464;-2.590;2022-10-16T13:34:06;5.53;;;0.95;;
56469;SDS011;42374;51.464;-2.590;2022-10-16T13:36:47;6.10;;;1.13;;
56469;SDS011;42374;51.464;-2.590;2022-10-16T13:39:27;7.57;;;1.20;;
56469;SDS011;42374;51.464;-2.590;2022-10-16T13:44:45;4.45;;;0.88;;
56469;SDS011;42374;51.464;-2.590;2022-10-16T13:47:19;6.38;;;1.13;;
56469;SDS011;42374;51.464;-2.590;2022-10-16T13:49:45;6.68;;;1.30;;
56469;SDS011;42374;51.464;-2.590;2022-10-16T13:52:16;14.27;;;1.20;;
56469;SDS011;42374;51.464;-2.590;2022-10-16T13:54:43;7.10;;;1.08;;
56469;SDS011;42374;51.464;-2.590;2022-10-16T13:57:12;6.22;;;0.90;;
56469;SDS011;42374;51.464;-2.590;2022-10-16T13:59:38;6.95;;;1.10;;
56469;SDS011;42374;51.464;-2.590;2022-10-16T14:02:08;7.53;;;1.08;;
56469;SDS011;42374;51.464;-2.590;2022-10-16T14:04:39;5.18;;;0.98;;
56469;SDS011;42374;51.464;-2.590;2022-10-16T14:07:11;8.98;;;0.90;;
56469;SDS011;42374;51.464;-2.590;2022-10-16T14:09:38;7.45;;;1.35;;
56469;SDS011;42374;51.464;-2.590;2022-10-16T14:12:08;5.68;;;1.25;;
56469;SDS011;42374;51.464;-2.590;2022-10-16T14:14:43;9.63;;;1.20;;
56469;SDS011;42374;51.464;-2.590;2022-10-16T14:17:29;8.02;;;1.30;;
56469;SDS011;42374;51.464;-2.590;2022-10-16T14:19:56;10.75;;;1.20;;
56469;SDS011;42374;51.464;-2.590;2022-10-16T14:24:52;10.35;;;1.40;;
56469;SDS011;42374;51.464;-2.590;2022-10-16T14:32:39;6.50;;;1.17;;
56469;SDS011;42374;51.464;-2.590;2022-10-16T14:35:21;10.80;;;1.08;;
56469;SDS011;42374;51.464;-2.590;2022-10-16T14:37:50;4.70;;;1.10;;
56469;SDS011;42374;51.464;-2.590;2022-10-16T14:40:16;7.63;;;1.50;;
56469;SDS011;42374;51.464;-2.590;2022-10-16T14:42:43;5.43;;;1.10;;
56469;SDS011;42374;51.464;-2.590;2022-10-16T14:45:10;8.10;;;1.13;;
56469;SDS011;42374;51.464;-2.590;2022-10-16T14:47:36;7.63;;;1.83;;
56469;SDS011;42374;51.464;-2.590;2022-10-16T14:50:04;5.40;;;1.10;;
56469;SDS011;42374;51.464;-2.590;2022-10-16T14:52:30;9.80;;;1.10;;
56469;SDS011;42374;51.464;-2.590;2022-10-16T14:54:57;9.13;;;0.90;;
56469;SDS011;42374;51.464;-2.590;2022-10-16T14:57:24;7.32;;;1.10;;
56469;SDS011;42374;51.464;-2.590;2022-10-16T14:59:51;7.57;;;1.20;;
56469;SDS011;42374;51.464;-2.590;2022-10-16T15:02:23;4.60;;;0.80;;
56469;SDS011;42374;51.464;-2.590;2022-10-16T15:04:50;8.32;;;1.05;;
56469;SDS011;42374;51.464;-2.590;2022-10-16T15:07:17;7.38;;;1.20;;
56469;SDS011;42374;51.464;-2.590;2022-10-16T15:09:43;8.20;;;1.20;;
56469;SDS011;42374;51.464;-2.590;2022-10-16T15:12:09;9.80;;;1.40;;
56469;SDS011;42374;51.464;-2.590;2022-10-16T15:14:37;9.77;;;1.30;;
56469;SDS011;42374;51.464;-2.590;2022-10-16T15:17:03;5.57;;;1.10;;
56469;SDS011;42374;51.464;-2.590;2022-10-16T15:19:29;10.68;;;1.10;;
56469;SDS011;42374;51.464;-2.590;2022-10-16T15:21:55;15.32;;;1.42;;
56469;SDS011;42374;51.464;-2.590;2022-10-16T15:24:21;9.50;;;1.40;;
56469;SDS011;42374;51.464;-2.590;2022-10-16T15:26:48;12.60;;;1.50;;
56469;SDS011;42374;51.464;-2.590;2022-10-16T15:29:14;12.73;;;1.10;;
56469;SDS011;42374;51.464;-2.590;2022-10-16T15:31:40;9.45;;;1.10;;
56469;SDS011;42374;51.464;-2.590;2022-10-16T15:34:12;9.95;;;1.50;;
56469;SDS011;42374;51.464;-2.590;2022-10-16T15:36:38;11.35;;;1.50;;
56469;SDS011;42374;51.464;-2.590;2022-10-16T15:39:05;13.00;;;1.48;;
56469;SDS011;42374;51.464;-2.590;2022-10-16T15:41:32;8.38;;;0.90;;
56469;SDS011;42374;51.464;-2.590;2022-10-16T15:43:59;8.30;;;1.80;;
56469;SDS011;42374;51.464;-2.590;2022-10-16T15:46:25;9.98;;;1.45;;
56469;SDS011;42374;51.464;-2.590;2022-10-16T15:48:51;11.57;;;1.30;;
56469;SDS011;42374;51.464;-2.590;2022-10-16T15:51:21;5.90;;;1.10;;
56469;SDS011;42374;51.464;-2.590;2022-10-16T15:53:47;13.82;;;1.17;;
56469;SDS011;42374;51.464;-2.590;2022-10-16T15:56:13;16.27;;;1.30;;
56469;SDS011;42374;51.464;-2.590;2022-10-16T15:58:39;7.22;;;1.30;;
56469;SDS011;42374;51.464;-2.590;2022-10-16T16:01:05;11.85;;;1.73;;
56469;SDS011;42374;51.464;-2.590;2022-10-16T16:03:33;11.02;;;1.15;;
56469;SDS011;42374;51.464;-2.590;2022-10-16T16:06:04;15.02;;;1.40;;
56469;SDS011;42374;51.464;-2.590;2022-10-16T16:08:30;12.45;;;1.63;;
56469;SDS011;42374;51.464;-2.590;2022-10-16T16:10:57;8.90;;;1.58;;
56469;SDS011;42374;51.464;-2.590;2022-10-16T16:13:24;10.85;;;1.70;;
56469;SDS011;42374;51.464;-2.590;2022-10-16T16:15:50;9.38;;;1.13;;
56469;SDS011;42374;51.464;-2.590;2022-10-16T16:18:16;9.27;;;1.38;;
56469;SDS011;42374;51.464;-2.590;2022-10-16T16:20:43;18.58;;;1.80;;
56469;SDS011;42374;51.464;-2.590;2022-10-16T16:23:09;7.15;;;1.50;;
56469;SDS011;42374;51.464;-2.590;2022-10-16T16:25:35;9.23;;;1.40;;
56469;SDS011;42374;51.464;-2.590;2022-10-16T16:28:01;9.68;;;1.20;;
56469;SDS011;42374;51.464;-2.590;2022-10-16T16:30:27;10.63;;;1.83;;
56469;SDS011;42374;51.464;-2.590;2022-10-16T16:32:53;10.75;;;1.70;;
56469;SDS011;42374;51.464;-2.590;2022-10-16T16:35:21;7.45;;;1.30;;
56469;SDS011;42374;51.464;-2.590;2022-10-16T16:37:47;10.38;;;1.40;;
56469;SDS011;42374;51.464;-2.590;2022-10-16T16:40:13;14.77;;;1.30;;
56469;SDS011;42374;51.464;-2.590;2022-10-16T16:42:39;23.23;;;3.65;;
56469;SDS011;42374;51.464;-2.590;2022-10-16T16:45:05;8.23;;;1.73;;
56469;SDS011;42374;51.464;-2.590;2022-10-16T16:47:32;14.20;;;1.60;;
56469;SDS011;42374;51.464;-2.590;2022-10-16T16:49:58;10.65;;;1.50;;